sensor_id;sensor_type;location;lat;lon;timestamp;temperature;humidity
21518;DHT22;61765;45.794;24.150;2024-01-30T00:00:52;3.70;80.30
21518;DHT22;61765;45.794;24.150;2024-01-30T00:09:00;3.70;79.70
21518;DHT22;61765;45.794;24.150;2024-01-30T00:17:07;3.70;80.10
21518;DHT22;61765;45.794;24.150;2024-01-30T00:25:16;3.80;79.40
21518;DHT22;61765;45.794;24.150;2024-01-30T00:33:22;3.70;79.10
21518;DHT22;61765;45.794;24.150;2024-01-30T00:41:30;3.50;79.50
21518;DHT22;61765;45.794;24.150;2024-01-30T00:49:36;3.70;80.00
21518;DHT22;61765;45.794;24.150;2024-01-30T00:57:45;3.30;80.40
21518;DHT22;61765;45.794;24.150;2024-01-30T01:05:51;3.10;80.60
21518;DHT22;61765;45.794;24.150;2024-01-30T01:13:59;3.30;81.00
21518;DHT22;61765;45.794;24.150;2024-01-30T01:22:05;3.00;80.60
21518;DHT22;61765;45.794;24.150;2024-01-30T01:30:13;3.10;81.00
21518;DHT22;61765;45.794;24.150;2024-01-30T01:38:24;2.80;80.50
21518;DHT22;61765;45.794;24.150;2024-01-30T01:46:33;2.60;81.40
21518;DHT22;61765;45.794;24.150;2024-01-30T01:54:39;3.20;81.40
21518;DHT22;61765;45.794;24.150;2024-01-30T02:02:50;2.90;80.70
21518;DHT22;61765;45.794;24.150;2024-01-30T02:10:56;3.00;81.90
21518;DHT22;61765;45.794;24.150;2024-01-30T02:19:05;3.00;80.60
21518;DHT22;61765;45.794;24.150;2024-01-30T02:27:13;2.90;81.60
21518;DHT22;61765;45.794;24.150;2024-01-30T02:35:19;3.00;81.00
21518;DHT22;61765;45.794;24.150;2024-01-30T02:43:27;3.20;81.00
21518;DHT22;61765;45.794;24.150;2024-01-30T02:51:33;2.90;81.70
21518;DHT22;61765;45.794;24.150;2024-01-30T02:59:41;2.80;81.40
21518;DHT22;61765;45.794;24.150;2024-01-30T03:07:46;2.60;81.70
21518;DHT22;61765;45.794;24.150;2024-01-30T03:15:55;2.50;81.90
21518;DHT22;61765;45.794;24.150;2024-01-30T03:24:00;2.60;82.20
21518;DHT22;61765;45.794;24.150;2024-01-30T03:32:08;2.40;80.80
21518;DHT22;61765;45.794;24.150;2024-01-30T03:40:14;2.50;82.00
21518;DHT22;61765;45.794;24.150;2024-01-30T03:48:23;2.80;81.50
21518;DHT22;61765;45.794;24.150;2024-01-30T03:56:28;2.60;82.40
21518;DHT22;61765;45.794;24.150;2024-01-30T04:04:37;2.30;81.60
21518;DHT22;61765;45.794;24.150;2024-01-30T04:12:43;1.80;81.80
21518;DHT22;61765;45.794;24.150;2024-01-30T04:20:51;1.80;82.70
21518;DHT22;61765;45.794;24.150;2024-01-30T04:28:56;1.80;83.20
21518;DHT22;61765;45.794;24.150;2024-01-30T04:37:05;1.80;83.10
21518;DHT22;61765;45.794;24.150;2024-01-30T04:45:10;2.00;83.00
21518;DHT22;61765;45.794;24.150;2024-01-30T04:53:18;2.00;82.90
21518;DHT22;61765;45.794;24.150;2024-01-30T05:01:24;2.00;82.80
21518;DHT22;61765;45.794;24.150;2024-01-30T05:09:32;2.00;82.80
21518;DHT22;61765;45.794;24.150;2024-01-30T05:17:38;2.20;83.10
21518;DHT22;61765;45.794;24.150;2024-01-30T05:25:46;1.80;83.20
21518;DHT22;61765;45.794;24.150;2024-01-30T05:33:52;2.00;84.10
21518;DHT22;61765;45.794;24.150;2024-01-30T05:42:00;2.10;82.20
21518;DHT22;61765;45.794;24.150;2024-01-30T05:50:07;2.10;82.80
21518;DHT22;61765;45.794;24.150;2024-01-30T05:58:16;2.10;82.30
21518;DHT22;61765;45.794;24.150;2024-01-30T06:06:22;2.00;82.50
21518;DHT22;61765;45.794;24.150;2024-01-30T06:14:30;1.40;82.80
21518;DHT22;61765;45.794;24.150;2024-01-30T06:22:35;1.30;83.40
21518;DHT22;61765;45.794;24.150;2024-01-30T06:30:45;1.10;84.70
21518;DHT22;61765;45.794;24.150;2024-01-30T06:38:50;1.60;83.30
21518;DHT22;61765;45.794;24.150;2024-01-30T06:46:59;1.20;85.10
21518;DHT22;61765;45.794;24.150;2024-01-30T06:55:05;1.90;83.50
21518;DHT22;61765;45.794;24.150;2024-01-30T07:03:14;2.40;83.00
21518;DHT22;61765;45.794;24.150;2024-01-30T07:11:20;2.30;81.70
21518;DHT22;61765;45.794;24.150;2024-01-30T07:19:29;3.10;80.90
21518;DHT22;61765;45.794;24.150;2024-01-30T07:27:35;3.10;78.70
21518;DHT22;61765;45.794;24.150;2024-01-30T07:35:43;2.40;81.80
21518;DHT22;61765;45.794;24.150;2024-01-30T07:43:49;2.90;82.20
21518;DHT22;61765;45.794;24.150;2024-01-30T07:52:01;3.80;78.80
21518;DHT22;61765;45.794;24.150;2024-01-30T08:00:08;3.30;79.80
21518;DHT22;61765;45.794;24.150;2024-01-30T08:08:16;3.50;79.80
21518;DHT22;61765;45.794;24.150;2024-01-30T08:16:22;4.60;76.10
21518;DHT22;61765;45.794;24.150;2024-01-30T08:24:35;3.90;78.80
21518;DHT22;61765;45.794;24.150;2024-01-30T08:32:43;4.80;76.90
21518;DHT22;61765;45.794;24.150;2024-01-30T08:40:51;5.70;76.80
21518;DHT22;61765;45.794;24.150;2024-01-30T08:48:56;7.80;74.30
21518;DHT22;61765;45.794;24.150;2024-01-30T08:57:05;12.90;62.60
21518;DHT22;61765;45.794;24.150;2024-01-30T09:05:11;17.00;54.70
21518;DHT22;61765;45.794;24.150;2024-01-30T09:13:19;19.10;49.90
21518;DHT22;61765;45.794;24.150;2024-01-30T09:21:25;20.80;45.80
21518;DHT22;61765;45.794;24.150;2024-01-30T09:29:33;22.70;44.20
21518;DHT22;61765;45.794;24.150;2024-01-30T09:37:39;24.50;40.40
21518;DHT22;61765;45.794;24.150;2024-01-30T09:45:48;25.90;37.50
21518;DHT22;61765;45.794;24.150;2024-01-30T09:53:55;27.90;37.10
21518;DHT22;61765;45.794;24.150;2024-01-30T10:02:04;28.80;35.70
21518;DHT22;61765;45.794;24.150;2024-01-30T10:10:10;30.50;34.30
21518;DHT22;61765;45.794;24.150;2024-01-30T10:18:18;30.10;32.40
21518;DHT22;61765;45.794;24.150;2024-01-30T10:26:24;25.90;32.90
21518;DHT22;61765;45.794;24.150;2024-01-30T10:34:34;19.20;40.80
21518;DHT22;61765;45.794;24.150;2024-01-30T10:42:43;15.70;45.70
21518;DHT22;61765;45.794;24.150;2024-01-30T10:50:51;13.70;48.40
21518;DHT22;61765;45.794;24.150;2024-01-30T10:59:02;12.00;51.80
21518;DHT22;61765;45.794;24.150;2024-01-30T11:07:24;11.70;52.70
21518;DHT22;61765;45.794;24.150;2024-01-30T11:15:31;11.00;54.10
21518;DHT22;61765;45.794;24.150;2024-01-30T11:23:39;10.90;54.60
21518;DHT22;61765;45.794;24.150;2024-01-30T11:31:52;10.70;55.00
21518;DHT22;61765;45.794;24.150;2024-01-30T11:40:00;10.60;55.00
21518;DHT22;61765;45.794;24.150;2024-01-30T11:48:08;10.30;56.20
21518;DHT22;61765;45.794;24.150;2024-01-30T11:56:16;10.30;56.20
21518;DHT22;61765;45.794;24.150;2024-01-30T12:04:22;10.30;56.50
21518;DHT22;61765;45.794;24.150;2024-01-30T12:12:30;10.30;56.70
21518;DHT22;61765;45.794;24.150;2024-01-30T12:20:37;10.30;57.40
21518;DHT22;61765;45.794;24.150;2024-01-30T12:28:54;10.30;57.30
21518;DHT22;61765;45.794;24.150;2024-01-30T12:37:01;10.20;57.00
21518;DHT22;61765;45.794;24.150;2024-01-30T12:45:09;10.20;57.80
21518;DHT22;61765;45.794;24.150;2024-01-30T12:53:15;10.20;58.80
21518;DHT22;61765;45.794;24.150;2024-01-30T13:01:24;10.00;59.10
21518;DHT22;61765;45.794;24.150;2024-01-30T13:09:30;10.10;59.00
21518;DHT22;61765;45.794;24.150;2024-01-30T13:17:39;10.00;59.10
21518;DHT22;61765;45.794;24.150;2024-01-30T13:25:45;10.00;59.10
21518;DHT22;61765;45.794;24.150;2024-01-30T13:33:53;10.00;59.30
21518;DHT22;61765;45.794;24.150;2024-01-30T13:41:59;10.00;59.20
21518;DHT22;61765;45.794;24.150;2024-01-30T13:50:08;10.10;59.50
21518;DHT22;61765;45.794;24.150;2024-01-30T13:58:17;10.00;59.50
21518;DHT22;61765;45.794;24.150;2024-01-30T14:06:29;9.90;59.50
21518;DHT22;61765;45.794;24.150;2024-01-30T14:14:34;9.60;59.60
21518;DHT22;61765;45.794;24.150;2024-01-30T14:22:43;9.50;60.20
21518;DHT22;61765;45.794;24.150;2024-01-30T14:30:49;9.60;60.80
21518;DHT22;61765;45.794;24.150;2024-01-30T14:38:58;9.50;60.20
21518;DHT22;61765;45.794;24.150;2024-01-30T14:47:03;9.50;60.20
21518;DHT22;61765;45.794;24.150;2024-01-30T14:55:12;9.50;60.30
21518;DHT22;61765;45.794;24.150;2024-01-30T15:03:18;9.40;60.50
21518;DHT22;61765;45.794;24.150;2024-01-30T15:11:26;9.20;62.10
21518;DHT22;61765;45.794;24.150;2024-01-30T15:19:32;9.10;62.50
21518;DHT22;61765;45.794;24.150;2024-01-30T15:27:40;9.20;63.00
21518;DHT22;61765;45.794;24.150;2024-01-30T15:35:45;9.00;63.20
21518;DHT22;61765;45.794;24.150;2024-01-30T15:43:54;8.90;63.70
21518;DHT22;61765;45.794;24.150;2024-01-30T15:51:59;8.70;64.50
21518;DHT22;61765;45.794;24.150;2024-01-30T16:00:09;8.60;65.40
21518;DHT22;61765;45.794;24.150;2024-01-30T16:08:19;8.60;65.30
21518;DHT22;61765;45.794;24.150;2024-01-30T16:16:27;8.50;65.60
21518;DHT22;61765;45.794;24.150;2024-01-30T16:24:33;8.40;66.30
21518;DHT22;61765;45.794;24.150;2024-01-30T16:32:41;8.30;66.80
21518;DHT22;61765;45.794;24.150;2024-01-30T16:40:47;8.10;67.20
21518;DHT22;61765;45.794;24.150;2024-01-30T16:48:56;8.30;68.40
21518;DHT22;61765;45.794;24.150;2024-01-30T16:57:03;8.30;67.70
21518;DHT22;61765;45.794;24.150;2024-01-30T17:05:11;7.90;67.80
21518;DHT22;61765;45.794;24.150;2024-01-30T17:13:28;7.60;69.40
21518;DHT22;61765;45.794;24.150;2024-01-30T17:21:36;7.00;71.40
21518;DHT22;61765;45.794;24.150;2024-01-30T17:29:43;6.70;72.40
21518;DHT22;61765;45.794;24.150;2024-01-30T17:37:52;6.70;72.90
21518;DHT22;61765;45.794;24.150;2024-01-30T17:45:57;7.10;72.80
21518;DHT22;61765;45.794;24.150;2024-01-30T17:54:06;7.00;72.60
21518;DHT22;61765;45.794;24.150;2024-01-30T18:02:11;6.90;73.30
21518;DHT22;61765;45.794;24.150;2024-01-30T18:10:20;6.60;73.50
21518;DHT22;61765;45.794;24.150;2024-01-30T18:18:26;6.50;73.90
21518;DHT22;61765;45.794;24.150;2024-01-30T18:26:37;6.50;73.90
21518;DHT22;61765;45.794;24.150;2024-01-30T18:34:43;6.30;74.40
21518;DHT22;61765;45.794;24.150;2024-01-30T18:42:51;6.20;75.00
21518;DHT22;61765;45.794;24.150;2024-01-30T18:50:59;6.10;74.80
21518;DHT22;61765;45.794;24.150;2024-01-30T18:59:08;6.20;75.60
21518;DHT22;61765;45.794;24.150;2024-01-30T19:07:19;6.10;75.80
21518;DHT22;61765;45.794;24.150;2024-01-30T19:15:27;6.00;76.80
21518;DHT22;61765;45.794;24.150;2024-01-30T19:23:34;6.20;75.80
21518;DHT22;61765;45.794;24.150;2024-01-30T19:31:42;5.60;76.00
21518;DHT22;61765;45.794;24.150;2024-01-30T19:39:48;5.30;77.90
21518;DHT22;61765;45.794;24.150;2024-01-30T19:47:57;5.40;77.80
21518;DHT22;61765;45.794;24.150;2024-01-30T19:56:03;5.30;77.60
21518;DHT22;61765;45.794;24.150;2024-01-30T20:04:11;5.30;78.20
21518;DHT22;61765;45.794;24.150;2024-01-30T20:12:17;5.50;78.00
21518;DHT22;61765;45.794;24.150;2024-01-30T20:20:26;5.80;77.20
21518;DHT22;61765;45.794;24.150;2024-01-30T20:28:32;5.40;78.00
21518;DHT22;61765;45.794;24.150;2024-01-30T20:36:41;5.20;77.70
21518;DHT22;61765;45.794;24.150;2024-01-30T20:44:50;5.30;77.40
21518;DHT22;61765;45.794;24.150;2024-01-30T20:52:58;5.30;77.10
21518;DHT22;61765;45.794;24.150;2024-01-30T21:01:04;4.80;79.10
21518;DHT22;61765;45.794;24.150;2024-01-30T21:09:12;4.50;79.00
21518;DHT22;61765;45.794;24.150;2024-01-30T21:17:18;4.30;79.40
21518;DHT22;61765;45.794;24.150;2024-01-30T21:25:26;4.30;79.80
21518;DHT22;61765;45.794;24.150;2024-01-30T21:33:33;4.30;80.60
21518;DHT22;61765;45.794;24.150;2024-01-30T21:41:41;4.30;81.10
21518;DHT22;61765;45.794;24.150;2024-01-30T21:49:48;4.80;80.50
21518;DHT22;61765;45.794;24.150;2024-01-30T21:57:56;4.60;79.70
21518;DHT22;61765;45.794;24.150;2024-01-30T22:06:02;4.80;78.80
21518;DHT22;61765;45.794;24.150;2024-01-30T22:14:10;5.00;78.20
21518;DHT22;61765;45.794;24.150;2024-01-30T22:22:16;4.50;78.50
21518;DHT22;61765;45.794;24.150;2024-01-30T22:30:24;4.20;79.10
21518;DHT22;61765;45.794;24.150;2024-01-30T22:38:30;4.30;79.60
21518;DHT22;61765;45.794;24.150;2024-01-30T22:46:38;4.40;79.80
21518;DHT22;61765;45.794;24.150;2024-01-30T22:54:44;3.90;80.40
21518;DHT22;61765;45.794;24.150;2024-01-30T23:02:52;3.70;80.60
21518;DHT22;61765;45.794;24.150;2024-01-30T23:10:59;3.90;81.00
21518;DHT22;61765;45.794;24.150;2024-01-30T23:19:07;3.80;80.90
21518;DHT22;61765;45.794;24.150;2024-01-30T23:27:13;4.00;81.40
21518;DHT22;61765;45.794;24.150;2024-01-30T23:35:22;3.90;81.00
21518;DHT22;61765;45.794;24.150;2024-01-30T23:43:28;4.00;80.90
21518;DHT22;61765;45.794;24.150;2024-01-30T23:51:36;4.10;79.90
21518;DHT22;61765;45.794;24.150;2024-01-30T23:59:41;4.30;78.90
